sensor_id;sensor_type;location;lat;lon;timestamp;P1;durP1;ratioP1;P2;durP2;ratioP2
12271;SDS011;6198;51.446;6.698;2022-08-19T00:00:15;11.33;;;7.83;;
12271;SDS011;6198;51.446;6.698;2022-08-19T00:02:42;14.50;;;7.80;;
12271;SDS011;6198;51.446;6.698;2022-08-19T00:05:09;8.00;;;7.23;;
12271;SDS011;6198;51.446;6.698;2022-08-19T00:07:35;8.90;;;7.40;;
12271;SDS011;6198;51.446;6.698;2022-08-19T00:10:02;8.13;;;7.30;;
12271;SDS011;6198;51.446;6.698;2022-08-19T00:12:28;8.80;;;7.87;;
12271;SDS011;6198;51.446;6.698;2022-08-19T00:14:54;9.53;;;7.43;;
12271;SDS011;6198;51.446;6.698;2022-08-19T00:17:20;9.43;;;7.87;;
12271;SDS011;6198;51.446;6.698;2022-08-19T00:19:46;9.10;;;8.20;;
12271;SDS011;6198;51.446;6.698;2022-08-19T00:22:12;8.87;;;7.83;;
12271;SDS011;6198;51.446;6.698;2022-08-19T00:24:38;9.73;;;7.57;;
12271;SDS011;6198;51.446;6.698;2022-08-19T00:27:06;10.33;;;7.97;;
12271;SDS011;6198;51.446;6.698;2022-08-19T00:29:32;10.37;;;8.23;;
12271;SDS011;6198;51.446;6.698;2022-08-19T00:31:58;9.33;;;8.13;;
12271;SDS011;6198;51.446;6.698;2022-08-19T00:34:24;10.00;;;8.33;;
12271;SDS011;6198;51.446;6.698;2022-08-19T00:36:53;8.70;;;7.90;;
12271;SDS011;6198;51.446;6.698;2022-08-19T00:39:19;9.80;;;7.50;;
12271;SDS011;6198;51.446;6.698;2022-08-19T00:41:46;12.97;;;9.07;;
12271;SDS011;6198;51.446;6.698;2022-08-19T00:46:45;8.33;;;7.53;;
12271;SDS011;6198;51.446;6.698;2022-08-19T00:49:17;8.40;;;7.70;;
12271;SDS011;6198;51.446;6.698;2022-08-19T00:51:45;10.07;;;8.13;;
12271;SDS011;6198;51.446;6.698;2022-08-19T00:54:12;8.37;;;7.47;;
12271;SDS011;6198;51.446;6.698;2022-08-19T00:56:38;8.33;;;7.53;;
12271;SDS011;6198;51.446;6.698;2022-08-19T00:59:05;9.27;;;7.63;;
12271;SDS011;6198;51.446;6.698;2022-08-19T01:01:34;8.83;;;8.03;;
12271;SDS011;6198;51.446;6.698;2022-08-19T01:04:00;12.23;;;8.10;;
12271;SDS011;6198;51.446;6.698;2022-08-19T01:06:26;8.67;;;7.80;;
12271;SDS011;6198;51.446;6.698;2022-08-19T01:08:53;9.63;;;8.63;;
12271;SDS011;6198;51.446;6.698;2022-08-19T01:11:19;10.55;;;9.32;;
12271;SDS011;6198;51.446;6.698;2022-08-19T01:13:46;9.63;;;8.37;;
12271;SDS011;6198;51.446;6.698;2022-08-19T01:16:12;9.20;;;8.17;;
12271;SDS011;6198;51.446;6.698;2022-08-19T01:18:40;8.80;;;8.00;;
12271;SDS011;6198;51.446;6.698;2022-08-19T01:23:48;9.20;;;8.30;;
12271;SDS011;6198;51.446;6.698;2022-08-19T01:26:18;8.87;;;7.93;;
12271;SDS011;6198;51.446;6.698;2022-08-19T01:28:45;9.07;;;7.90;;
12271;SDS011;6198;51.446;6.698;2022-08-19T01:31:13;9.00;;;8.10;;
12271;SDS011;6198;51.446;6.698;2022-08-19T01:33:39;9.00;;;8.10;;
12271;SDS011;6198;51.446;6.698;2022-08-19T01:36:10;8.90;;;8.00;;
12271;SDS011;6198;51.446;6.698;2022-08-19T01:38:38;10.37;;;9.20;;
12271;SDS011;6198;51.446;6.698;2022-08-19T01:41:04;11.20;;;9.57;;
12271;SDS011;6198;51.446;6.698;2022-08-19T01:43:31;9.77;;;8.73;;
12271;SDS011;6198;51.446;6.698;2022-08-19T01:45:57;9.50;;;8.60;;
12271;SDS011;6198;51.446;6.698;2022-08-19T01:48:23;10.40;;;8.60;;
12271;SDS011;6198;51.446;6.698;2022-08-19T01:50:49;10.17;;;9.17;;
12271;SDS011;6198;51.446;6.698;2022-08-19T01:53:15;9.20;;;8.40;;
12271;SDS011;6198;51.446;6.698;2022-08-19T01:55:42;10.83;;;8.77;;
12271;SDS011;6198;51.446;6.698;2022-08-19T01:58:11;10.60;;;9.40;;
12271;SDS011;6198;51.446;6.698;2022-08-19T02:00:37;12.03;;;9.93;;
12271;SDS011;6198;51.446;6.698;2022-08-19T02:03:03;10.77;;;9.33;;
12271;SDS011;6198;51.446;6.698;2022-08-19T02:05:31;14.17;;;10.70;;
12271;SDS011;6198;51.446;6.698;2022-08-19T02:07:57;12.87;;;11.67;;
12271;SDS011;6198;51.446;6.698;2022-08-19T02:10:24;11.90;;;10.67;;
12271;SDS011;6198;51.446;6.698;2022-08-19T02:12:50;11.80;;;10.40;;
12271;SDS011;6198;51.446;6.698;2022-08-19T02:15:16;12.57;;;11.03;;
12271;SDS011;6198;51.446;6.698;2022-08-19T02:17:44;10.70;;;9.80;;
12271;SDS011;6198;51.446;6.698;2022-08-19T02:20:10;12.50;;;11.20;;
12271;SDS011;6198;51.446;6.698;2022-08-19T02:22:37;11.83;;;10.53;;
12271;SDS011;6198;51.446;6.698;2022-08-19T02:25:06;11.93;;;10.80;;
12271;SDS011;6198;51.446;6.698;2022-08-19T02:27:32;12.63;;;11.27;;
12271;SDS011;6198;51.446;6.698;2022-08-19T02:29:58;12.23;;;11.03;;
12271;SDS011;6198;51.446;6.698;2022-08-19T02:32:25;13.00;;;11.37;;
12271;SDS011;6198;51.446;6.698;2022-08-19T02:34:51;12.73;;;11.40;;
12271;SDS011;6198;51.446;6.698;2022-08-19T02:37:17;12.63;;;11.43;;
12271;SDS011;6198;51.446;6.698;2022-08-19T02:40:02;12.50;;;11.20;;
12271;SDS011;6198;51.446;6.698;2022-08-19T02:42:29;12.70;;;10.93;;
12271;SDS011;6198;51.446;6.698;2022-08-19T02:44:56;13.57;;;12.20;;
12271;SDS011;6198;51.446;6.698;2022-08-19T02:47:22;13.23;;;11.93;;
12271;SDS011;6198;51.446;6.698;2022-08-19T02:49:48;13.20;;;11.63;;
12271;SDS011;6198;51.446;6.698;2022-08-19T02:52:14;16.03;;;11.90;;
12271;SDS011;6198;51.446;6.698;2022-08-19T02:54:40;12.70;;;11.33;;
12271;SDS011;6198;51.446;6.698;2022-08-19T02:57:07;13.20;;;11.20;;
12271;SDS011;6198;51.446;6.698;2022-08-19T02:59:33;13.00;;;11.70;;
12271;SDS011;6198;51.446;6.698;2022-08-19T03:01:59;13.93;;;12.43;;
12271;SDS011;6198;51.446;6.698;2022-08-19T03:04:25;17.87;;;11.57;;
12271;SDS011;6198;51.446;6.698;2022-08-19T03:06:51;13.80;;;11.90;;
12271;SDS011;6198;51.446;6.698;2022-08-19T03:09:18;13.87;;;12.53;;
12271;SDS011;6198;51.446;6.698;2022-08-19T03:11:44;15.17;;;13.57;;
12271;SDS011;6198;51.446;6.698;2022-08-19T03:14:10;17.20;;;13.00;;
12271;SDS011;6198;51.446;6.698;2022-08-19T03:16:45;15.47;;;12.27;;
12271;SDS011;6198;51.446;6.698;2022-08-19T03:19:12;15.30;;;13.67;;
12271;SDS011;6198;51.446;6.698;2022-08-19T03:21:38;15.50;;;13.90;;
12271;SDS011;6198;51.446;6.698;2022-08-19T03:24:05;17.50;;;15.17;;
12271;SDS011;6198;51.446;6.698;2022-08-19T03:26:32;17.70;;;15.93;;
12271;SDS011;6198;51.446;6.698;2022-08-19T03:29:01;17.97;;;16.17;;
12271;SDS011;6198;51.446;6.698;2022-08-19T03:31:27;19.10;;;17.07;;
12271;SDS011;6198;51.446;6.698;2022-08-19T03:33:54;20.37;;;18.20;;
12271;SDS011;6198;51.446;6.698;2022-08-19T03:36:21;19.93;;;17.93;;
12271;SDS011;6198;51.446;6.698;2022-08-19T03:38:48;20.27;;;17.53;;
12271;SDS011;6198;51.446;6.698;2022-08-19T03:41:16;21.20;;;19.00;;
12271;SDS011;6198;51.446;6.698;2022-08-19T03:43:43;17.40;;;15.70;;
12271;SDS011;6198;51.446;6.698;2022-08-19T03:46:13;18.53;;;15.73;;
12271;SDS011;6198;51.446;6.698;2022-08-19T03:48:39;17.63;;;15.83;;
12271;SDS011;6198;51.446;6.698;2022-08-19T03:51:06;18.83;;;17.03;;
12271;SDS011;6198;51.446;6.698;2022-08-19T03:53:33;18.93;;;17.00;;
12271;SDS011;6198;51.446;6.698;2022-08-19T03:55:59;19.50;;;17.47;;
12271;SDS011;6198;51.446;6.698;2022-08-19T03:58:25;19.90;;;17.93;;
12271;SDS011;6198;51.446;6.698;2022-08-19T04:00:53;20.10;;;18.00;;
12271;SDS011;6198;51.446;6.698;2022-08-19T04:03:20;20.07;;;17.87;;
12271;SDS011;6198;51.446;6.698;2022-08-19T04:05:46;21.60;;;19.40;;
12271;SDS011;6198;51.446;6.698;2022-08-19T04:08:12;21.53;;;19.30;;
12271;SDS011;6198;51.446;6.698;2022-08-19T04:10:40;20.90;;;18.77;;
12271;SDS011;6198;51.446;6.698;2022-08-19T04:13:06;21.67;;;19.47;;
12271;SDS011;6198;51.446;6.698;2022-08-19T04:15:38;23.37;;;20.87;;
12271;SDS011;6198;51.446;6.698;2022-08-19T04:18:06;23.93;;;20.43;;
12271;SDS011;6198;51.446;6.698;2022-08-19T04:20:32;25.33;;;20.87;;
12271;SDS011;6198;51.446;6.698;2022-08-19T04:22:59;24.97;;;22.23;;
12271;SDS011;6198;51.446;6.698;2022-08-19T04:25:24;27.13;;;24.33;;
12271;SDS011;6198;51.446;6.698;2022-08-19T04:27:50;29.73;;;26.37;;
12271;SDS011;6198;51.446;6.698;2022-08-19T04:30:16;35.20;;;26.77;;
12271;SDS011;6198;51.446;6.698;2022-08-19T04:32:44;28.20;;;25.27;;
12271;SDS011;6198;51.446;6.698;2022-08-19T04:35:10;27.97;;;23.20;;
12271;SDS011;6198;51.446;6.698;2022-08-19T04:37:36;25.60;;;23.07;;
12271;SDS011;6198;51.446;6.698;2022-08-19T04:40:04;30.23;;;25.07;;
12271;SDS011;6198;51.446;6.698;2022-08-19T04:43:06;31.23;;;27.20;;
12271;SDS011;6198;51.446;6.698;2022-08-19T04:45:33;30.40;;;27.20;;
12271;SDS011;6198;51.446;6.698;2022-08-19T04:48:01;30.83;;;27.23;;
12271;SDS011;6198;51.446;6.698;2022-08-19T04:50:28;28.93;;;25.83;;
12271;SDS011;6198;51.446;6.698;2022-08-19T04:52:54;31.60;;;26.63;;
12271;SDS011;6198;51.446;6.698;2022-08-19T04:55:20;28.20;;;25.20;;
12271;SDS011;6198;51.446;6.698;2022-08-19T04:57:46;30.47;;;26.63;;
12271;SDS011;6198;51.446;6.698;2022-08-19T05:00:12;32.83;;;26.27;;
12271;SDS011;6198;51.446;6.698;2022-08-19T05:02:38;29.60;;;26.40;;
12271;SDS011;6198;51.446;6.698;2022-08-19T05:05:04;36.67;;;30.80;;
12271;SDS011;6198;51.446;6.698;2022-08-19T05:07:31;40.03;;;31.57;;
12271;SDS011;6198;51.446;6.698;2022-08-19T05:09:57;38.57;;;32.57;;
12271;SDS011;6198;51.446;6.698;2022-08-19T05:12:23;41.23;;;31.73;;
12271;SDS011;6198;51.446;6.698;2022-08-19T05:14:49;39.87;;;33.37;;
12271;SDS011;6198;51.446;6.698;2022-08-19T05:17:16;42.70;;;35.60;;
12271;SDS011;6198;51.446;6.698;2022-08-19T05:19:42;46.90;;;37.63;;
12271;SDS011;6198;51.446;6.698;2022-08-19T05:22:27;44.10;;;36.87;;
12271;SDS011;6198;51.446;6.698;2022-08-19T05:25:03;41.97;;;36.50;;
12271;SDS011;6198;51.446;6.698;2022-08-19T05:27:30;44.87;;;35.63;;
12271;SDS011;6198;51.446;6.698;2022-08-19T05:29:56;43.10;;;37.40;;
12271;SDS011;6198;51.446;6.698;2022-08-19T05:32:22;45.37;;;38.27;;
12271;SDS011;6198;51.446;6.698;2022-08-19T05:34:48;42.93;;;36.50;;
12271;SDS011;6198;51.446;6.698;2022-08-19T05:37:14;42.77;;;36.97;;
12271;SDS011;6198;51.446;6.698;2022-08-19T05:39:40;41.83;;;35.27;;
12271;SDS011;6198;51.446;6.698;2022-08-19T05:42:07;46.80;;;37.40;;
12271;SDS011;6198;51.446;6.698;2022-08-19T05:44:35;48.00;;;38.47;;
12271;SDS011;6198;51.446;6.698;2022-08-19T05:47:02;45.97;;;39.43;;
12271;SDS011;6198;51.446;6.698;2022-08-19T05:49:29;45.57;;;40.10;;
12271;SDS011;6198;51.446;6.698;2022-08-19T05:51:55;48.23;;;41.00;;
12271;SDS011;6198;51.446;6.698;2022-08-19T05:54:22;49.93;;;42.70;;
12271;SDS011;6198;51.446;6.698;2022-08-19T05:56:49;57.47;;;42.83;;
12271;SDS011;6198;51.446;6.698;2022-08-19T05:59:15;48.77;;;42.23;;
12271;SDS011;6198;51.446;6.698;2022-08-19T06:01:43;46.63;;;41.67;;
12271;SDS011;6198;51.446;6.698;2022-08-19T06:04:09;48.90;;;42.97;;
12271;SDS011;6198;51.446;6.698;2022-08-19T06:06:35;50.93;;;45.50;;
12271;SDS011;6198;51.446;6.698;2022-08-19T06:09:03;51.80;;;46.17;;
12271;SDS011;6198;51.446;6.698;2022-08-19T06:11:40;52.27;;;46.67;;
12271;SDS011;6198;51.446;6.698;2022-08-19T06:14:09;54.70;;;45.97;;
12271;SDS011;6198;51.446;6.698;2022-08-19T06:16:36;55.50;;;49.43;;
12271;SDS011;6198;51.446;6.698;2022-08-19T06:19:03;55.20;;;49.33;;
12271;SDS011;6198;51.446;6.698;2022-08-19T06:21:31;61.53;;;47.33;;
12271;SDS011;6198;51.446;6.698;2022-08-19T06:23:58;53.33;;;46.63;;
12271;SDS011;6198;51.446;6.698;2022-08-19T06:26:24;56.43;;;47.50;;
12271;SDS011;6198;51.446;6.698;2022-08-19T06:28:51;54.60;;;48.70;;
12271;SDS011;6198;51.446;6.698;2022-08-19T06:31:19;55.17;;;49.23;;
12271;SDS011;6198;51.446;6.698;2022-08-19T06:33:46;56.33;;;48.60;;
12271;SDS011;6198;51.446;6.698;2022-08-19T06:36:22;54.17;;;48.30;;
12271;SDS011;6198;51.446;6.698;2022-08-19T06:38:52;56.07;;;50.23;;
12271;SDS011;6198;51.446;6.698;2022-08-19T06:41:18;67.03;;;57.30;;
12271;SDS011;6198;51.446;6.698;2022-08-19T06:43:44;61.17;;;54.57;;
12271;SDS011;6198;51.446;6.698;2022-08-19T06:46:12;61.40;;;54.57;;
12271;SDS011;6198;51.446;6.698;2022-08-19T06:48:38;61.33;;;53.97;;
12271;SDS011;6198;51.446;6.698;2022-08-19T06:51:04;64.70;;;54.23;;
12271;SDS011;6198;51.446;6.698;2022-08-19T06:53:30;61.77;;;55.03;;
12271;SDS011;6198;51.446;6.698;2022-08-19T06:55:56;60.80;;;53.33;;
12271;SDS011;6198;51.446;6.698;2022-08-19T06:58:26;59.13;;;52.73;;
12271;SDS011;6198;51.446;6.698;2022-08-19T07:00:56;62.13;;;52.23;;
12271;SDS011;6198;51.446;6.698;2022-08-19T07:03:25;58.90;;;51.10;;
12271;SDS011;6198;51.446;6.698;2022-08-19T07:06:02;55.77;;;49.83;;
12271;SDS011;6198;51.446;6.698;2022-08-19T07:08:28;54.50;;;48.57;;
12271;SDS011;6198;51.446;6.698;2022-08-19T07:10:54;57.80;;;48.63;;
12271;SDS011;6198;51.446;6.698;2022-08-19T07:13:20;54.10;;;48.27;;
12271;SDS011;6198;51.446;6.698;2022-08-19T07:15:47;55.53;;;49.43;;
12271;SDS011;6198;51.446;6.698;2022-08-19T07:18:14;53.60;;;46.63;;
12271;SDS011;6198;51.446;6.698;2022-08-19T07:20:40;54.20;;;45.97;;
12271;SDS011;6198;51.446;6.698;2022-08-19T07:23:07;54.40;;;48.40;;
12271;SDS011;6198;51.446;6.698;2022-08-19T07:25:35;51.77;;;46.07;;
12271;SDS011;6198;51.446;6.698;2022-08-19T07:28:01;51.27;;;45.57;;
12271;SDS011;6198;51.446;6.698;2022-08-19T07:30:27;49.67;;;44.30;;
12271;SDS011;6198;51.446;6.698;2022-08-19T07:32:53;49.57;;;44.10;;
12271;SDS011;6198;51.446;6.698;2022-08-19T07:35:21;48.77;;;41.77;;
12271;SDS011;6198;51.446;6.698;2022-08-19T07:37:46;46.87;;;41.77;;
12271;SDS011;6198;51.446;6.698;2022-08-19T07:40:13;45.73;;;40.13;;
12271;SDS011;6198;51.446;6.698;2022-08-19T07:42:39;45.83;;;40.40;;
12271;SDS011;6198;51.446;6.698;2022-08-19T07:45:05;45.60;;;37.10;;
12271;SDS011;6198;51.446;6.698;2022-08-19T07:47:32;40.93;;;35.27;;
12271;SDS011;6198;51.446;6.698;2022-08-19T07:49:58;38.43;;;31.10;;
12271;SDS011;6198;51.446;6.698;2022-08-19T07:52:24;32.70;;;28.10;;
12271;SDS011;6198;51.446;6.698;2022-08-19T07:54:50;32.87;;;29.33;;
12271;SDS011;6198;51.446;6.698;2022-08-19T07:57:16;33.13;;;28.93;;
12271;SDS011;6198;51.446;6.698;2022-08-19T07:59:42;31.57;;;27.67;;
12271;SDS011;6198;51.446;6.698;2022-08-19T08:02:08;35.03;;;27.27;;
12271;SDS011;6198;51.446;6.698;2022-08-19T08:04:34;31.07;;;27.23;;
12271;SDS011;6198;51.446;6.698;2022-08-19T08:07:19;29.13;;;26.10;;
12271;SDS011;6198;51.446;6.698;2022-08-19T08:10:04;23.97;;;21.37;;
12271;SDS011;6198;51.446;6.698;2022-08-19T08:12:33;28.70;;;22.63;;
12271;SDS011;6198;51.446;6.698;2022-08-19T08:15:01;23.30;;;19.93;;
12271;SDS011;6198;51.446;6.698;2022-08-19T08:17:28;23.90;;;21.30;;
12271;SDS011;6198;51.446;6.698;2022-08-19T08:19:54;26.37;;;21.50;;
12271;SDS011;6198;51.446;6.698;2022-08-19T08:22:21;30.30;;;25.07;;
12271;SDS011;6198;51.446;6.698;2022-08-19T08:25:07;31.93;;;24.73;;
12271;SDS011;6198;51.446;6.698;2022-08-19T08:27:37;28.90;;;24.27;;
12271;SDS011;6198;51.446;6.698;2022-08-19T08:30:05;35.23;;;25.57;;
12271;SDS011;6198;51.446;6.698;2022-08-19T08:32:34;29.00;;;25.60;;
12271;SDS011;6198;51.446;6.698;2022-08-19T08:35:00;28.23;;;24.53;;
12271;SDS011;6198;51.446;6.698;2022-08-19T08:37:26;26.87;;;23.17;;
12271;SDS011;6198;51.446;6.698;2022-08-19T08:39:52;26.83;;;23.07;;
12271;SDS011;6198;51.446;6.698;2022-08-19T08:47:13;32.13;;;25.50;;
12271;SDS011;6198;51.446;6.698;2022-08-19T08:49:45;33.63;;;29.80;;
12271;SDS011;6198;51.446;6.698;2022-08-19T08:52:24;32.73;;;27.93;;
12271;SDS011;6198;51.446;6.698;2022-08-19T08:54:51;32.50;;;28.17;;
12271;SDS011;6198;51.446;6.698;2022-08-19T08:57:19;30.20;;;26.23;;
12271;SDS011;6198;51.446;6.698;2022-08-19T08:59:47;34.13;;;28.00;;
12271;SDS011;6198;51.446;6.698;2022-08-19T09:02:15;33.03;;;27.00;;
12271;SDS011;6198;51.446;6.698;2022-08-19T09:04:41;32.40;;;27.03;;
12271;SDS011;6198;51.446;6.698;2022-08-19T09:09:53;32.00;;;28.50;;
12271;SDS011;6198;51.446;6.698;2022-08-19T09:14:52;32.90;;;28.73;;
12271;SDS011;6198;51.446;6.698;2022-08-19T09:17:23;32.07;;;26.40;;
12271;SDS011;6198;51.446;6.698;2022-08-19T09:19:54;31.17;;;27.40;;
12271;SDS011;6198;51.446;6.698;2022-08-19T09:22:20;28.30;;;25.40;;
12271;SDS011;6198;51.446;6.698;2022-08-19T09:24:47;29.90;;;24.80;;
12271;SDS011;6198;51.446;6.698;2022-08-19T09:27:13;34.80;;;27.23;;
12271;SDS011;6198;51.446;6.698;2022-08-19T09:29:39;31.63;;;26.87;;
12271;SDS011;6198;51.446;6.698;2022-08-19T09:32:05;30.00;;;26.33;;
12271;SDS011;6198;51.446;6.698;2022-08-19T09:34:31;31.63;;;26.43;;
12271;SDS011;6198;51.446;6.698;2022-08-19T09:36:57;30.13;;;26.50;;
12271;SDS011;6198;51.446;6.698;2022-08-19T09:39:25;26.23;;;23.43;;
12271;SDS011;6198;51.446;6.698;2022-08-19T09:41:51;26.00;;;22.87;;
12271;SDS011;6198;51.446;6.698;2022-08-19T09:44:18;28.93;;;23.13;;
12271;SDS011;6198;51.446;6.698;2022-08-19T09:46:47;28.80;;;24.33;;
12271;SDS011;6198;51.446;6.698;2022-08-19T09:49:13;27.67;;;24.60;;
12271;SDS011;6198;51.446;6.698;2022-08-19T09:51:39;27.37;;;24.37;;
12271;SDS011;6198;51.446;6.698;2022-08-19T09:54:05;30.23;;;26.90;;
12271;SDS011;6198;51.446;6.698;2022-08-19T09:56:31;35.60;;;28.03;;
12271;SDS011;6198;51.446;6.698;2022-08-19T09:58:58;29.57;;;25.20;;
12271;SDS011;6198;51.446;6.698;2022-08-19T10:01:25;28.13;;;25.10;;
12271;SDS011;6198;51.446;6.698;2022-08-19T10:03:53;29.00;;;25.47;;
12271;SDS011;6198;51.446;6.698;2022-08-19T10:06:20;34.90;;;27.83;;
12271;SDS011;6198;51.446;6.698;2022-08-19T10:08:47;28.53;;;24.60;;
12271;SDS011;6198;51.446;6.698;2022-08-19T10:11:13;27.27;;;24.47;;
12271;SDS011;6198;51.446;6.698;2022-08-19T10:13:41;27.77;;;24.77;;
12271;SDS011;6198;51.446;6.698;2022-08-19T10:16:09;25.40;;;22.07;;
12271;SDS011;6198;51.446;6.698;2022-08-19T10:18:36;26.50;;;23.00;;
12271;SDS011;6198;51.446;6.698;2022-08-19T10:21:09;25.97;;;20.17;;
12271;SDS011;6198;51.446;6.698;2022-08-19T10:23:36;23.33;;;17.37;;
12271;SDS011;6198;51.446;6.698;2022-08-19T10:26:06;24.83;;;18.50;;
12271;SDS011;6198;51.446;6.698;2022-08-19T10:28:33;19.93;;;17.93;;
12271;SDS011;6198;51.446;6.698;2022-08-19T10:31:02;17.43;;;15.57;;
12271;SDS011;6198;51.446;6.698;2022-08-19T10:33:29;16.63;;;14.93;;
12271;SDS011;6198;51.446;6.698;2022-08-19T10:36:38;20.30;;;16.60;;
12271;SDS011;6198;51.446;6.698;2022-08-19T10:38:46;16.90;;;15.27;;
12271;SDS011;6198;51.446;6.698;2022-08-19T10:41:13;19.90;;;16.77;;
12271;SDS011;6198;51.446;6.698;2022-08-19T10:43:40;16.47;;;14.73;;
12271;SDS011;6198;51.446;6.698;2022-08-19T10:46:07;18.00;;;15.93;;
12271;SDS011;6198;51.446;6.698;2022-08-19T10:48:33;17.10;;;15.30;;
12271;SDS011;6198;51.446;6.698;2022-08-19T10:50:59;15.97;;;14.27;;
12271;SDS011;6198;51.446;6.698;2022-08-19T10:53:44;16.73;;;14.93;;
12271;SDS011;6198;51.446;6.698;2022-08-19T10:56:10;18.23;;;16.33;;
12271;SDS011;6198;51.446;6.698;2022-08-19T10:58:55;15.30;;;13.67;;
12271;SDS011;6198;51.446;6.698;2022-08-19T11:01:22;15.13;;;13.53;;
12271;SDS011;6198;51.446;6.698;2022-08-19T11:03:48;18.90;;;14.93;;
12271;SDS011;6198;51.446;6.698;2022-08-19T11:06:14;18.20;;;14.20;;
12271;SDS011;6198;51.446;6.698;2022-08-19T11:08:41;22.10;;;13.20;;
12271;SDS011;6198;51.446;6.698;2022-08-19T11:11:10;14.13;;;11.80;;
12271;SDS011;6198;51.446;6.698;2022-08-19T11:13:37;11.83;;;10.60;;
12271;SDS011;6198;51.446;6.698;2022-08-19T11:16:08;13.27;;;11.13;;
12271;SDS011;6198;51.446;6.698;2022-08-19T11:18:35;15.00;;;13.53;;
12271;SDS011;6198;51.446;6.698;2022-08-19T11:21:06;12.33;;;10.43;;
12271;SDS011;6198;51.446;6.698;2022-08-19T11:23:32;14.30;;;11.40;;
12271;SDS011;6198;51.446;6.698;2022-08-19T11:25:58;14.40;;;12.13;;
12271;SDS011;6198;51.446;6.698;2022-08-19T11:28:26;13.57;;;11.70;;
12271;SDS011;6198;51.446;6.698;2022-08-19T11:30:52;12.63;;;10.80;;
12271;SDS011;6198;51.446;6.698;2022-08-19T11:33:18;14.57;;;13.03;;
12271;SDS011;6198;51.446;6.698;2022-08-19T11:35:44;14.60;;;12.00;;
12271;SDS011;6198;51.446;6.698;2022-08-19T11:38:10;18.97;;;11.30;;
12271;SDS011;6198;51.446;6.698;2022-08-19T11:40:36;15.23;;;13.63;;
12271;SDS011;6198;51.446;6.698;2022-08-19T11:43:02;10.90;;;9.80;;
12271;SDS011;6198;51.446;6.698;2022-08-19T11:45:29;11.80;;;9.60;;
12271;SDS011;6198;51.446;6.698;2022-08-19T11:47:56;10.40;;;8.50;;
12271;SDS011;6198;51.446;6.698;2022-08-19T11:50:22;9.03;;;8.13;;
12271;SDS011;6198;51.446;6.698;2022-08-19T11:52:48;10.20;;;8.53;;
12271;SDS011;6198;51.446;6.698;2022-08-19T11:55:14;10.90;;;9.50;;
12271;SDS011;6198;51.446;6.698;2022-08-19T11:57:41;13.17;;;8.63;;
12271;SDS011;6198;51.446;6.698;2022-08-19T12:00:08;10.43;;;8.83;;
12271;SDS011;6198;51.446;6.698;2022-08-19T12:02:36;11.67;;;9.87;;
12271;SDS011;6198;51.446;6.698;2022-08-19T12:05:02;11.50;;;10.33;;
12271;SDS011;6198;51.446;6.698;2022-08-19T12:07:28;10.03;;;9.13;;
12271;SDS011;6198;51.446;6.698;2022-08-19T12:09:58;9.27;;;7.67;;
12271;SDS011;6198;51.446;6.698;2022-08-19T12:12:23;10.13;;;8.23;;
12271;SDS011;6198;51.446;6.698;2022-08-19T12:14:50;8.80;;;7.90;;
12271;SDS011;6198;51.446;6.698;2022-08-19T12:17:21;10.20;;;8.67;;
12271;SDS011;6198;51.446;6.698;2022-08-19T12:19:47;11.40;;;8.00;;
12271;SDS011;6198;51.446;6.698;2022-08-19T12:22:13;7.57;;;6.80;;
12271;SDS011;6198;51.446;6.698;2022-08-19T12:24:39;10.63;;;7.77;;
12271;SDS011;6198;51.446;6.698;2022-08-19T12:27:05;7.77;;;7.00;;
12271;SDS011;6198;51.446;6.698;2022-08-19T12:29:31;10.77;;;6.40;;
12271;SDS011;6198;51.446;6.698;2022-08-19T12:31:58;8.57;;;6.27;;
12271;SDS011;6198;51.446;6.698;2022-08-19T12:34:27;6.47;;;5.83;;
12271;SDS011;6198;51.446;6.698;2022-08-19T12:36:57;6.07;;;4.97;;
12271;SDS011;6198;51.446;6.698;2022-08-19T12:39:23;6.40;;;5.80;;
12271;SDS011;6198;51.446;6.698;2022-08-19T12:41:49;6.77;;;6.00;;
12271;SDS011;6198;51.446;6.698;2022-08-19T12:44:16;11.70;;;7.27;;
12271;SDS011;6198;51.446;6.698;2022-08-19T12:46:42;6.07;;;5.47;;
12271;SDS011;6198;51.446;6.698;2022-08-19T12:49:08;5.87;;;5.20;;
12271;SDS011;6198;51.446;6.698;2022-08-19T12:51:34;6.03;;;5.47;;
12271;SDS011;6198;51.446;6.698;2022-08-19T12:54:00;9.90;;;6.00;;
12271;SDS011;6198;51.446;6.698;2022-08-19T12:56:26;9.13;;;6.00;;
12271;SDS011;6198;51.446;6.698;2022-08-19T12:58:52;8.03;;;6.13;;
12271;SDS011;6198;51.446;6.698;2022-08-19T13:01:19;7.57;;;6.47;;
12271;SDS011;6198;51.446;6.698;2022-08-19T13:03:45;6.60;;;5.93;;
12271;SDS011;6198;51.446;6.698;2022-08-19T13:06:11;6.50;;;5.60;;
12271;SDS011;6198;51.446;6.698;2022-08-19T13:08:37;9.13;;;5.95;;
12271;SDS011;6198;51.446;6.698;2022-08-19T13:11:17;7.50;;;6.43;;
12271;SDS011;6198;51.446;6.698;2022-08-19T13:13:44;8.53;;;6.23;;
12271;SDS011;6198;51.446;6.698;2022-08-19T13:16:10;6.70;;;6.00;;
12271;SDS011;6198;51.446;6.698;2022-08-19T13:18:37;7.13;;;6.00;;
12271;SDS011;6198;51.446;6.698;2022-08-19T13:21:07;9.87;;;6.03;;
12271;SDS011;6198;51.446;6.698;2022-08-19T13:23:33;9.07;;;7.00;;
12271;SDS011;6198;51.446;6.698;2022-08-19T13:26:01;9.83;;;6.97;;
12271;SDS011;6198;51.446;6.698;2022-08-19T13:28:27;7.20;;;6.50;;
12271;SDS011;6198;51.446;6.698;2022-08-19T13:31:20;7.20;;;6.47;;
12271;SDS011;6198;51.446;6.698;2022-08-19T13:34:05;7.83;;;7.00;;
12271;SDS011;6198;51.446;6.698;2022-08-19T13:36:32;10.97;;;7.00;;
12271;SDS011;6198;51.446;6.698;2022-08-19T13:38:58;7.07;;;6.10;;
12271;SDS011;6198;51.446;6.698;2022-08-19T13:41:24;7.77;;;6.90;;
12271;SDS011;6198;51.446;6.698;2022-08-19T13:43:51;9.30;;;6.77;;
12271;SDS011;6198;51.446;6.698;2022-08-19T13:46:17;8.27;;;6.97;;
12271;SDS011;6198;51.446;6.698;2022-08-19T13:48:44;9.20;;;8.30;;
12271;SDS011;6198;51.446;6.698;2022-08-19T13:51:11;8.70;;;7.10;;
12271;SDS011;6198;51.446;6.698;2022-08-19T13:53:37;9.67;;;6.87;;
12271;SDS011;6198;51.446;6.698;2022-08-19T13:56:07;8.93;;;7.40;;
12271;SDS011;6198;51.446;6.698;2022-08-19T13:58:33;11.23;;;7.97;;
12271;SDS011;6198;51.446;6.698;2022-08-19T14:00:59;7.87;;;7.07;;
12271;SDS011;6198;51.446;6.698;2022-08-19T14:03:25;9.40;;;7.80;;
12271;SDS011;6198;51.446;6.698;2022-08-19T14:05:52;13.57;;;8.45;;
12271;SDS011;6198;51.446;6.698;2022-08-19T14:08:18;8.52;;;7.20;;
12271;SDS011;6198;51.446;6.698;2022-08-19T14:10:44;8.13;;;6.93;;
12271;SDS011;6198;51.446;6.698;2022-08-19T14:13:12;8.00;;;7.20;;
12271;SDS011;6198;51.446;6.698;2022-08-19T14:15:38;10.90;;;6.85;;
12271;SDS011;6198;51.446;6.698;2022-08-19T14:18:05;10.18;;;7.78;;
12271;SDS011;6198;51.446;6.698;2022-08-19T14:20:33;11.27;;;7.10;;
12271;SDS011;6198;51.446;6.698;2022-08-19T14:22:59;12.00;;;6.53;;
12271;SDS011;6198;51.446;6.698;2022-08-19T14:25:26;10.98;;;5.90;;
12271;SDS011;6198;51.446;6.698;2022-08-19T14:27:53;6.93;;;6.22;;
12271;SDS011;6198;51.446;6.698;2022-08-19T14:30:21;10.82;;;6.95;;
12271;SDS011;6198;51.446;6.698;2022-08-19T14:32:47;8.00;;;6.18;;
12271;SDS011;6198;51.446;6.698;2022-08-19T14:35:14;10.38;;;6.03;;
12271;SDS011;6198;51.446;6.698;2022-08-19T14:37:40;10.38;;;6.20;;
12271;SDS011;6198;51.446;6.698;2022-08-19T14:40:07;7.30;;;5.72;;
12271;SDS011;6198;51.446;6.698;2022-08-19T14:42:33;7.68;;;5.80;;
12271;SDS011;6198;51.446;6.698;2022-08-19T14:44:59;8.90;;;5.53;;
12271;SDS011;6198;51.446;6.698;2022-08-19T14:47:25;5.88;;;4.68;;
12271;SDS011;6198;51.446;6.698;2022-08-19T14:49:51;5.63;;;5.13;;
12271;SDS011;6198;51.446;6.698;2022-08-19T14:52:17;6.32;;;5.30;;
12271;SDS011;6198;51.446;6.698;2022-08-19T14:54:43;5.70;;;5.13;;
12271;SDS011;6198;51.446;6.698;2022-08-19T14:57:13;6.93;;;6.20;;
12271;SDS011;6198;51.446;6.698;2022-08-19T14:59:40;8.40;;;7.00;;